Terminal Aerodrome Forecast
Issued by NWS Raleigh/Durham, NC

Home | Current Version | Previous Version | Text Only | Print | Product List | Glossary On
Versions: 1 2 3 4 5 6 7 8 9 10 11 12 13 14 15 16 17 18 19 20 21 22 23 24 25 26 27 28 29 30 31 32 33 34 35 36 37 38 39 40 41 42 43 44 45 46 47 48 49
000
FTUS42 KRAH 241742
TAFGSO
TAF
KGSO 241742Z 2418/2518 22015G25KT P6SM SCT025
      TEMPO 2418/2422 BKN025
     FM242200 22009KT P6SM FEW020 SCT250
     FM250800 30006KT P6SM BKN100
     FM251300 35005KT P6SM BKN200=

USA.gov is the U.S. government's official web portal to all federal, state and local government web resources and services.